14 de agosto de 2022

Hora Código Clima Temp. Visibilidade Tecto Vento METAR/SPECI
00:20
L
23 °C 0 m - 070° 070° 3 kt METAR ETWM 132220Z AUTO 07003KT //// // ////// 23/13 Q1014 ///

13 de agosto de 2022

Hora Código Clima Temp. Visibilidade Tecto Vento METAR/SPECI
23:20
L
24 °C 0 m - 080° 080° 5 kt METAR ETWM 132120Z AUTO 08005KT //// // ////// 24/13 Q1014 ///
22:20
L
25 °C 0 m - 070° 070° 4 kt METAR ETWM 132020Z AUTO 07004KT //// // ////// 25/13 Q1014 ///
21:20
L
24 °C 0 m - Var Var 1 kt METAR ETWM 131920Z AUTO VRB01KT //// // ////// 24/13 Q1014 ///
20:20
L
29 °C 0 m - 070° 070° 3 kt METAR ETWM 131820Z AUTO 07003KT //// // ////// 29/12 Q1014 ///
19:20
L
30 °C 0 m - 090° 090° 7 kt METAR ETWM 131720Z AUTO 09007KT //// // ////// 30/11 Q1014 ///
18:20
L
31 °C 0 m - 110° 110° 8 kt METAR ETWM 131620Z AUTO 11008KT //// // ////// 31/11 Q1014 ///
17:20
L
31 °C 0 m - 090° 090° 10 kt METAR ETWM 131520Z AUTO 09010KT //// // ////// 31/10 Q1015 ///
16:20
L
31 °C 0 m - 100° 100° 9 kt METAR ETWM 131420Z AUTO 10009KT //// // ////// 31/09 Q1016 ///
15:20
L
30 °C 0 m - 080° 080° 8 - 19 kt METAR ETWM 131320Z AUTO 08008G19KT //// // ////// 30/10 Q1016 ///
14:20
L
30 °C 0 m - 090° 090° 6 - 16 kt METAR ETWM 131220Z AUTO 09006G16KT //// // ////// 30/09 Q1017 ///
13:20
L
30 °C 0 m - 110° 110° 8 kt METAR ETWM 131120Z AUTO 11008KT //// // ////// 30/09 Q1017 ///
12:20
L
29 °C 0 m - 070° 070° 7 kt METAR ETWM 131020Z AUTO 07007KT //// // ////// 29/09 Q1018 ///
11:20
L
28 °C 0 m - 110° 110° 5 kt METAR ETWM 130920Z AUTO 11005KT //// // ////// 28/10 Q1018 ///
10:20
L
26 °C 0 m - 080° 080° 5 kt METAR ETWM 130820Z AUTO 08005KT //// // ////// 26/10 Q1018 ///
09:20
L
23 °C 0 m - 070° 070° 5 kt METAR ETWM 130720Z AUTO 07005KT //// // ////// 23/10 Q1018 ///
08:20
L
19 °C 0 m - 050° 050° 2 kt METAR ETWM 130620Z AUTO 05002KT //// // ////// 19/10 Q1018 ///
07:20
L
13 °C 0 m - 020° 020° 2 kt METAR ETWM 130520Z AUTO 02002KT //// // ////// 13/09 Q1018 ///
06:20
L
12 °C 0 m - 010° 010° 1 kt METAR ETWM 130420Z AUTO 01001KT //// // ////// 12/09 Q1018 ///
05:20
L
13 °C 0 m - 360° 360° 1 kt METAR ETWM 130320Z AUTO 36001KT //// // ////// 13/09 Q1018 ///
04:20
L
13 °C 0 m - 010° 010° 1 kt METAR ETWM 130220Z AUTO 01001KT //// // ////// 13/09 Q1018 ///
03:20
L
13 °C 0 m - 010° 010° 1 kt METAR ETWM 130120Z AUTO 01001KT //// // ////// 13/09 Q1018 ///
02:20
L
15 °C 0 m - Var 000° 0 kt METAR ETWM 130020Z AUTO 00000KT //// // ////// 15/10 Q1018 ///
01:20
L
16 °C 0 m - 020° 020° 1 kt METAR ETWM 122320Z AUTO 02001KT //// // ////// 16/10 Q1018 ///
00:20
L
16 °C 0 m - 030° 030° 1 kt METAR ETWM 122220Z AUTO 03001KT //// // ////// 16/09 Q1018 ///

12 de agosto de 2022

Hora Código Clima Temp. Visibilidade Tecto Vento METAR/SPECI
23:20
L
18 °C 0 m - 010° 010° 1 kt METAR ETWM 122120Z AUTO 01001KT //// // ////// 18/09 Q1018 ///
22:20
L
20 °C 0 m - Var 000° 0 kt METAR ETWM 122020Z AUTO 00000KT //// // ////// 20/09 Q1018 ///
21:20
L
22 °C 0 m - Var 000° 0 kt METAR ETWM 121920Z AUTO 00000KT //// // ////// 22/09 Q1018 ///
20:20
L
28 °C 0 m - Var Var 2 kt METAR ETWM 121820Z AUTO VRB02KT //// // ////// 28/07 Q1017 ///
19:20
L
30 °C 0 m - 100° 100° 5 kt METAR ETWM 121720Z AUTO 10005KT //// // ////// 30/06 Q1017 ///
18:20
L
31 °C 0 m - 080° 080° 7 kt METAR ETWM 121620Z AUTO 08007KT //// // ////// 31/06 Q1017 ///
17:20
L
31 °C 0 m - 090° 090° 9 kt METAR ETWM 121520Z AUTO 09009KT //// // ////// 31/07 Q1018 ///
16:20
L
31 °C 0 m - 050° 050° 6 kt METAR ETWM 121420Z AUTO 05006KT //// // ////// 31/07 Q1018 ///
15:20
L
31 °C 0 m - 070° 070° 6 kt METAR ETWM 121320Z AUTO 07006KT //// // ////// 31/07 Q1018 ///
14:20
L
30 °C 0 m - 120° 120° 6 kt METAR ETWM 121220Z AUTO 12006KT //// // ////// 30/07 Q1019 ///
13:20
L
30 °C 0 m - 070° 070° 6 kt METAR ETWM 121120Z AUTO 07006KT //// // ////// 30/08 Q1019 ///
12:20
L
29 °C 0 m - 070° 070° 8 kt METAR ETWM 121020Z AUTO 07008KT //// // ////// 29/09 Q1020 ///
11:20
V
28 °C 10 km+ - 050° 050° 7 kt METAR ETWM 120920Z 05007KT 9999 FEW300 28/12 Q1020 BLU+
10:20
V
25 °C 10 km+ - 070° 070° 5 kt METAR ETWM 120820Z 07005KT 9999 FEW280 25/12 Q1020 BLU+
09:20
V
22 °C 10 km+ - 050° 050° 3 kt METAR ETWM 120720Z 05003KT 9999 FEW280 22/12 Q1020 BLU+
08:20
V
20 °C 10 km+ - 060° 060° 3 kt METAR ETWM 120620Z 06003KT 9999 FEW280 20/13 Q1020 BLU+
07:20
V
16 °C 10 km+ - 030° 030° 2 kt METAR ETWM 120520Z 03002KT 9999 FEW280 16/12 Q1020 BLU+
06:20
V
14 °C 10 km+ - 010° 010° 2 kt METAR ETWM 120420Z 01002KT 9999 FEW280 14/12 Q1020 BLU+
05:20
L
14 °C 0 m - 030° 030° 2 kt METAR ETWM 120320Z AUTO 03002KT //// // ////// 14/12 Q1020 ///
04:20
L
15 °C 0 m - 030° 030° 3 kt METAR ETWM 120220Z AUTO 03003KT //// // ////// 15/13 Q1020 ///
03:20
L
17 °C 0 m - 030° 030° 3 kt METAR ETWM 120120Z AUTO 03003KT //// // ////// 17/13 Q1020 ///
02:20
L
16 °C 0 m - 020° 020° 3 kt METAR ETWM 120020Z AUTO 02003KT //// // ////// 16/14 Q1021 ///
01:20
L
17 °C 0 m - 020° 020° 3 kt METAR ETWM 112320Z AUTO 02003KT //// // ////// 17/13 Q1021 ///
00:20
L
19 °C 0 m - 010° 010° 4 kt METAR ETWM 112220Z AUTO 01004KT //// // ////// 19/13 Q1021 ///

11 de agosto de 2022

Hora Código Clima Temp. Visibilidade Tecto Vento METAR/SPECI
23:20
L
21 °C 0 m - 010° 010° 4 kt METAR ETWM 112120Z AUTO 01004KT //// // ////// 21/13 Q1021 ///
22:20
L
23 °C 0 m - 020° 020° 4 kt METAR ETWM 112020Z AUTO 02004KT //// // ////// 23/12 Q1021 ///
21:20
L
24 °C 0 m - 030° 030° 5 kt METAR ETWM 111920Z AUTO 03005KT //// // ////// 24/12 Q1020 ///
20:20
L
27 °C 0 m - 030° 030° 5 kt METAR ETWM 111820Z AUTO 03005KT //// // ////// 27/10 Q1020 ///
19:20
L
29 °C 0 m - 050° 050° 5 kt METAR ETWM 111720Z AUTO 05005KT //// // ////// 29/09 Q1020 ///
18:20
L
30 °C 0 m - 080° 080° 5 kt METAR ETWM 111620Z AUTO 08005KT //// // ////// 30/07 Q1020 ///
17:20
L
30 °C 0 m - 050° 050° 8 kt METAR ETWM 111520Z AUTO 05008KT //// // ////// 30/06 Q1021 ///
Dados mais antigos

Nós e terceiros acompanhamos seu comportamento na internet em nosso site com cookies. Se você continuar, nós assumimos que você concorda com nossa política de cookies. Saiba mais